Time;durP1;ratioP1;P1;durP2;ratioP2;P2;SDS_P1;SDS_P2;PMS_P1;PMS_P2;Temp;Humidity;BMP_temperature;BMP_pressure;BME280_temperature;BME280_humidity;BME280_pressure;Samples;Min_cycle;Max_cycle;Signal;HPM_P1;HPM_P2
2022/09/29 00:01:12;;;;;;;3.87;3.57;;;13.30;95.10;;;;;;4878200;29;20460;-73
2022/09/29 00:03:40;;;;;;;3.77;3.40;;;13.30;95.10;;;;;;4904437;29;20508;-73
2022/09/29 00:06:16;;;;;;;3.43;3.13;;;13.30;95.10;;;;;;4899566;29;20502;-73
2022/09/29 00:08:46;;;;;;;3.67;3.30;;;13.30;95.10;;;;;;4901332;29;20558;-73
2022/09/29 00:11:20;;;;;;;4.23;3.83;;;13.30;95.10;;;;;;4913590;29;20443;-73
2022/09/29 00:13:46;;;;;;;3.70;3.40;;;13.30;95.10;;;;;;4900306;29;20436;-73
2022/09/29 00:16:15;;;;;;;3.40;3.10;;;13.30;95.10;;;;;;4880232;29;20462;-73
2022/09/29 00:18:41;;;;;;;3.87;3.40;;;13.30;95.10;;;;;;4882926;29;20500;-73
2022/09/29 00:21:18;;;;;;;4.83;3.33;;;13.30;95.10;;;;;;4895789;29;20438;-73
2022/09/29 00:23:47;;;;;;;3.73;3.37;;;13.30;95.10;;;;;;4896315;29;20436;-73
2022/09/29 00:26:18;;;;;;;4.07;3.67;;;13.30;95.10;;;;;;4895373;29;21002;-73
2022/09/29 00:28:59;;;;;;;3.70;3.17;;;13.30;95.10;;;;;;4884746;29;20830;-73
2022/09/29 00:31:32;;;;;;;5.20;3.27;;;13.20;95.10;;;;;;4880237;29;20414;-73
2022/09/29 00:34:00;;;;;;;2.90;2.60;;;13.20;95.10;;;;;;4871022;29;20467;-73
2022/09/29 00:36:28;;;;;;;3.43;3.13;;;13.20;95.00;;;;;;4917345;29;20463;-73
2022/09/29 00:38:56;;;;;;;4.13;3.30;;;13.20;95.10;;;;;;4916432;29;20969;-73
2022/09/29 00:41:31;;;;;;;3.70;3.40;;;13.20;95.00;;;;;;4917699;29;20511;-73
2022/09/29 00:44:06;;;;;;;3.60;3.30;;;13.20;95.10;;;;;;4901925;29;20451;-73
2022/09/29 00:46:40;;;;;;;4.00;3.60;;;13.20;95.00;;;;;;4879609;29;20472;-73
2022/09/29 00:49:25;;;;;;;3.43;3.13;;;13.20;95.00;;;;;;4909060;29;20424;-73
2022/09/29 00:52:11;;;;;;;3.07;2.77;;;13.20;95.00;;;;;;4898573;29;20780;-73
2022/09/29 00:54:48;;;;;;;3.70;3.40;;;13.20;95.10;;;;;;4917451;29;20458;-73
2022/09/29 00:58:05;;;;;;;3.97;3.17;;;13.10;95.00;;;;;;4902910;29;20436;-73
2022/09/29 01:00:33;;;;;;;3.83;3.20;;;13.10;95.00;;;;;;4913116;29;20530;-73
2022/09/29 01:03:16;;;;;;;3.80;3.20;;;13.10;95.00;;;;;;4914739;29;20508;-73
2022/09/29 01:05:49;;;;;;;3.60;3.03;;;13.10;94.90;;;;;;4898521;29;20529;-73
2022/09/29 01:08:37;;;;;;;3.20;2.97;;;13.10;94.90;;;;;;4918195;29;20451;-73
2022/09/29 01:11:06;;;;;;;3.43;3.13;;;13.10;94.90;;;;;;4879734;29;20418;-73
2022/09/29 01:13:36;;;;;;;3.70;3.20;;;13.10;95.00;;;;;;4880438;29;20454;-73
2022/09/29 01:16:07;;;;;;;3.53;3.17;;;13.10;94.90;;;;;;4916780;29;20448;-73
2022/09/29 01:18:33;;;;;;;3.97;3.60;;;13.10;94.90;;;;;;4916119;29;20490;-73
2022/09/29 01:21:14;;;;;;;3.67;3.23;;;13.10;94.90;;;;;;4867458;29;20794;-73
2022/09/29 01:23:56;;;;;;;3.57;3.27;;;13.10;94.90;;;;;;4892592;29;20455;-73
2022/09/29 01:26:59;;;;;;;3.10;2.87;;;13.10;94.90;;;;;;4916905;29;20822;-73
2022/09/29 01:29:44;;;;;;;3.80;3.40;;;13.10;94.90;;;;;;4892671;29;20463;-73
2022/09/29 01:32:41;;;;;;;3.10;2.80;;;13.10;94.90;;;;;;4916650;29;20409;-73
2022/09/29 01:35:33;;;;;;;4.13;3.00;;;13.00;94.80;;;;;;4894657;29;20471;-73
2022/09/29 01:38:20;;;;;;;3.77;3.40;;;13.00;94.80;;;;;;4892863;29;20467;-73
2022/09/29 01:41:04;;;;;;;2.97;2.67;;;13.00;94.80;;;;;;4884118;29;20784;-73
2022/09/29 01:43:35;;;;;;;4.13;3.27;;;13.00;94.80;;;;;;4906252;29;20432;-73
2022/09/29 01:46:19;;;;;;;3.67;3.30;;;13.00;94.80;;;;;;4917748;29;20535;-73
2022/09/29 01:48:50;;;;;;;3.20;2.77;;;13.00;94.80;;;;;;4907437;29;20828;-73
2022/09/29 01:51:24;;;;;;;3.70;3.30;;;13.00;94.80;;;;;;4914618;29;20833;-73
2022/09/29 01:53:56;;;;;;;3.97;3.17;;;13.00;94.80;;;;;;4917232;29;20464;-73
2022/09/29 01:56:44;;;;;;;3.30;3.03;;;13.00;94.80;;;;;;4907704;29;20464;-73
2022/09/29 01:59:50;;;;;;;3.83;3.27;;;13.00;94.80;;;;;;4901561;29;20449;-73
2022/09/29 02:02:28;;;;;;;3.97;3.13;;;12.90;94.70;;;;;;4901657;29;20422;-73
2022/09/29 02:05:01;;;;;;;4.30;3.00;;;12.90;94.70;;;;;;4908418;29;20499;-73
2022/09/29 02:07:34;;;;;;;3.33;3.03;;;13.00;94.80;;;;;;4915580;29;20548;-73
2022/09/29 02:10:04;;;;;;;4.57;3.60;;;12.90;94.70;;;;;;4916512;29;20905;-73
2022/09/29 02:12:33;;;;;;;4.30;3.00;;;12.90;94.70;;;;;;4899691;29;20419;-73
2022/09/29 02:15:06;;;;;;;3.47;3.17;;;12.90;94.70;;;;;;4886594;29;20429;-73
2022/09/29 02:17:39;;;;;;;3.97;3.33;;;12.90;94.60;;;;;;4898143;29;20439;-73
2022/09/29 02:20:06;;;;;;;3.27;2.97;;;12.90;94.60;;;;;;4908376;29;20437;-73
2022/09/29 02:22:34;;;;;;;3.50;3.20;;;12.90;94.60;;;;;;4899895;29;20443;-73
2022/09/29 02:25:08;;;;;;;3.50;3.20;;;12.90;94.60;;;;;;4911062;29;20467;-73
2022/09/29 02:27:35;;;;;;;2.93;2.73;;;12.90;94.60;;;;;;5008071;23;21013;-73
2022/09/29 02:30:01;;;;;;;6.03;3.27;;;12.90;94.60;;;;;;4954852;29;20421;-73
2022/09/29 02:32:30;;;;;;;3.67;3.20;;;12.90;94.60;;;;;;4954776;28;20446;-73
2022/09/29 02:34:58;;;;;;;2.73;2.53;;;12.80;94.50;;;;;;4955875;28;20900;-73
2022/09/29 02:37:46;;;;;;;3.30;3.00;;;12.80;94.80;;;;;;4954837;29;20394;-73
2022/09/29 02:40:21;;;;;;;3.30;2.97;;;12.80;94.50;;;;;;4954963;29;20822;-72
2022/09/29 02:43:08;;;;;;;3.43;3.10;;;12.80;94.40;;;;;;4936946;29;20426;-73
2022/09/29 02:45:50;;;;;;;3.43;3.13;;;12.80;94.40;;;;;;4951443;29;20952;-73
2022/09/29 02:48:25;;;;;;;3.30;3.00;;;12.80;94.40;;;;;;4951166;29;20456;-73
2022/09/29 02:51:00;;;;;;;3.43;3.13;;;12.80;94.40;;;;;;4935101;29;20454;-73
2022/09/29 02:53:53;;;;;;;3.07;2.60;;;12.80;94.40;;;;;;4943784;28;20981;-73
2022/09/29 02:56:37;;;;;;;3.43;2.70;;;12.80;94.40;;;;;;4951343;29;20458;-73
2022/09/29 02:59:12;;;;;;;2.70;2.50;;;12.70;94.40;;;;;;4939365;29;20948;-72
2022/09/29 03:01:53;;;;;;;3.10;2.80;;;12.80;94.40;;;;;;4954537;29;20414;-73
2022/09/29 03:04:22;;;;;;;3.40;2.73;;;12.70;94.30;;;;;;4954545;29;20429;-73
2022/09/29 03:06:49;;;;;;;3.00;2.70;;;12.70;94.30;;;;;;4922543;29;20532;-73
2022/09/29 03:09:15;;;;;;;3.47;3.17;;;12.70;94.30;;;;;;4954019;28;20458;-72
2022/09/29 03:11:44;;;;;;;3.10;2.80;;;12.70;94.30;;;;;;4954470;28;20554;-72
2022/09/29 03:14:13;;;;;;;2.70;2.50;;;12.70;94.30;;;;;;4955313;28;20905;-72
2022/09/29 03:16:39;;;;;;;2.87;2.63;;;12.70;94.30;;;;;;4955144;28;20527;-72
2022/09/29 03:19:13;;;;;;;2.73;2.53;;;12.70;94.30;;;;;;4954352;29;20418;-72
2022/09/29 03:21:41;;;;;;;2.63;2.43;;;12.70;94.30;;;;;;4954034;29;20450;-72
2022/09/29 03:24:09;;;;;;;2.87;2.67;;;12.70;94.30;;;;;;4938419;29;20430;-72
2022/09/29 03:26:35;;;;;;;3.20;2.83;;;12.70;94.20;;;;;;4953740;29;20476;-72
2022/09/29 03:29:01;;;;;;;3.23;2.53;;;12.60;94.20;;;;;;4937990;29;20486;-73
2022/09/29 03:31:31;;;;;;;3.00;2.63;;;12.70;94.20;;;;;;4953821;29;20437;-72
2022/09/29 03:33:57;;;;;;;3.10;2.80;;;12.60;94.10;;;;;;4954091;28;20766;-72
2022/09/29 03:36:26;;;;;;;2.50;2.30;;;12.60;94.10;;;;;;4953779;29;20948;-73
2022/09/29 03:38:52;;;;;;;2.90;2.60;;;12.60;94.10;;;;;;4955287;28;20403;-72
2022/09/29 03:41:20;;;;;;;3.10;2.80;;;12.60;94.00;;;;;;4955164;28;20409;-72
2022/09/29 03:43:46;;;;;;;4.27;3.03;;;12.60;94.00;;;;;;4955001;28;20434;-73
2022/09/29 03:46:13;;;;;;;3.20;3.00;;;12.60;94.00;;;;;;4969631;28;20474;-73
2022/09/29 03:48:41;;;;;;;3.17;2.70;;;12.60;94.00;;;;;;4953868;29;20412;-73
2022/09/29 03:51:12;;;;;;;4.53;2.73;;;12.60;94.00;;;;;;4953777;29;20415;-72
2022/09/29 03:53:38;;;;;;;2.97;2.50;;;12.60;94.00;;;;;;4954985;28;20452;-72
2022/09/29 03:56:04;;;;;;;2.43;2.23;;;12.60;94.00;;;;;;4952924;29;20452;-72
2022/09/29 03:58:31;;;;;;;3.07;2.77;;;12.60;94.00;;;;;;4941817;28;20676;-72
2022/09/29 04:00:57;;;;;;;2.83;2.40;;;12.50;93.90;;;;;;4934766;29;20452;-72
2022/09/29 04:03:26;;;;;;;2.97;2.57;;;12.50;93.90;;;;;;4937844;29;20476;-72
2022/09/29 04:05:52;;;;;;;2.70;2.50;;;12.50;93.90;;;;;;4938368;29;20463;-72
2022/09/29 04:08:20;;;;;;;3.60;2.70;;;12.50;93.90;;;;;;4964691;28;20421;-72
2022/09/29 04:10:47;;;;;;;3.57;2.80;;;12.50;93.90;;;;;;4941407;29;20830;-72
2022/09/29 04:13:16;;;;;;;4.50;3.10;;;12.50;93.90;;;;;;4956978;29;20535;-72
2022/09/29 04:15:42;;;;;;;5.90;3.27;;;12.50;93.90;;;;;;4957328;29;20517;-72
2022/09/29 04:18:08;;;;;;;4.80;3.20;;;12.50;93.90;;;;;;4957299;28;20547;-72
2022/09/29 04:20:37;;;;;;;3.43;3.13;;;12.50;93.90;;;;;;4958810;28;20406;-72
2022/09/29 04:23:03;;;;;;;3.60;3.30;;;12.50;93.90;;;;;;4958476;28;20412;-72
2022/09/29 04:25:47;;;;;;;4.00;2.97;;;12.50;93.90;;;;;;4957273;29;21055;-72
2022/09/29 04:28:13;;;;;;;4.40;3.77;;;12.50;93.90;;;;;;4958328;28;20561;-72
2022/09/29 04:30:42;;;;;;;3.70;3.17;;;12.40;93.80;;;;;;4945567;29;20429;-74
2022/09/29 04:33:08;;;;;;;4.10;3.50;;;12.50;93.90;;;;;;4956985;28;20562;-75
2022/09/29 04:35:35;;;;;;;3.33;3.03;;;12.40;93.80;;;;;;4949260;28;20448;-75
2022/09/29 04:38:01;;;;;;;4.10;3.47;;;12.40;93.80;;;;;;4938150;29;20510;-77
2022/09/29 04:40:31;;;;;;;4.03;3.47;;;12.40;93.80;;;;;;4947854;29;20432;-74
2022/09/29 04:42:57;;;;;;;4.83;2.80;;;12.40;93.80;;;;;;4956020;28;20460;-75
2022/09/29 04:45:23;;;;;;;4.57;3.10;;;12.40;93.80;;;;;;4950207;28;20490;-75
2022/09/29 04:47:49;;;;;;;4.97;3.20;;;12.40;93.80;;;;;;4937026;29;20512;-75
2022/09/29 04:50:17;;;;;;;5.60;3.20;;;12.40;93.70;;;;;;4938264;29;20460;-75
2022/09/29 04:52:46;;;;;;;3.90;3.30;;;12.40;93.70;;;;;;4937182;29;21332;-75
2022/09/29 04:55:15;;;;;;;4.10;3.33;;;12.40;93.70;;;;;;4964275;28;20516;-75
2022/09/29 04:57:43;;;;;;;3.87;2.90;;;12.40;93.70;;;;;;4947366;28;20791;-75
2022/09/29 05:00:12;;;;;;;3.93;3.30;;;12.40;93.70;;;;;;4936822;29;20427;-75
2022/09/29 05:02:38;;;;;;;4.93;3.23;;;12.30;93.60;;;;;;4941488;29;20424;-75
2022/09/29 05:05:05;;;;;;;3.67;3.23;;;12.40;93.70;;;;;;4954808;29;20531;-75
2022/09/29 05:07:34;;;;;;;4.07;3.40;;;12.30;93.70;;;;;;4953763;28;20528;-75
2022/09/29 05:10:00;;;;;;;3.53;3.23;;;12.30;93.90;;;;;;4943286;29;20913;-75
2022/09/29 05:12:29;;;;;;;4.33;3.27;;;12.30;93.60;;;;;;4953723;28;20522;-76
2022/09/29 05:14:57;;;;;;;5.10;3.20;;;12.30;93.70;;;;;;4937916;29;20441;-75
2022/09/29 05:17:35;;;;;;;5.63;2.77;;;12.30;93.60;;;;;;4938126;29;20442;-75
2022/09/29 05:20:05;;;;;;;3.77;2.90;;;12.30;93.60;;;;;;4946825;28;20418;-75
2022/09/29 05:22:31;;;;;;;4.20;3.30;;;12.30;93.60;;;;;;4939738;28;20471;-75
2022/09/29 05:24:57;;;;;;;3.80;2.80;;;12.30;93.60;;;;;;4936528;29;20426;-75
2022/09/29 05:27:26;;;;;;;3.33;3.03;;;12.30;93.60;;;;;;4920556;29;21030;-75
2022/09/29 05:29:54;;;;;;;3.33;3.03;;;12.20;93.50;;;;;;4923454;29;20440;-75
2022/09/29 05:32:22;;;;;;;3.70;3.07;;;12.20;93.60;;;;;;4938679;28;20952;-75
2022/09/29 05:34:49;;;;;;;4.77;3.40;;;12.20;93.50;;;;;;4935960;29;20428;-75
2022/09/29 05:37:17;;;;;;;3.80;3.27;;;12.20;93.50;;;;;;4953775;28;20495;-74
2022/09/29 05:39:46;;;;;;;3.77;3.37;;;12.20;93.50;;;;;;4967724;28;20475;-75
2022/09/29 05:42:31;;;;;;;4.73;2.93;;;12.20;93.50;;;;;;4945658;29;20447;-75
2022/09/29 05:45:07;;;;;;;3.33;3.03;;;12.20;93.50;;;;;;4952255;29;20464;-75
2022/09/29 05:47:45;;;;;;;3.47;3.00;;;12.20;93.50;;;;;;4951927;29;20538;-74
2022/09/29 05:50:14;;;;;;;3.60;3.23;;;12.20;93.50;;;;;;4908410;29;20439;-75
2022/09/29 05:52:42;;;;;;;3.40;2.60;;;12.20;93.50;;;;;;4937521;29;20479;-77
2022/09/29 05:55:13;;;;;;;3.37;3.07;;;12.20;93.50;;;;;;4920859;29;20482;-75
2022/09/29 05:57:39;;;;;;;5.43;2.83;;;12.20;93.50;;;;;;4920537;29;20456;-75
2022/09/29 06:00:08;;;;;;;4.40;2.87;;;12.20;93.50;;;;;;4925284;29;20524;-75
2022/09/29 06:02:37;;;;;;;3.63;3.20;;;12.20;93.50;;;;;;4955083;29;20407;-75
2022/09/29 06:05:04;;;;;;;3.20;2.87;;;12.10;93.50;;;;;;4955121;29;20484;-76
2022/09/29 06:07:34;;;;;;;4.13;2.77;;;12.20;93.50;;;;;;4954953;29;20890;-76
2022/09/29 06:10:01;;;;;;;3.13;2.83;;;12.20;93.60;;;;;;4955152;29;20797;-76
2022/09/29 06:12:39;;;;;;;4.33;3.13;;;12.10;93.50;;;;;;4956453;28;20491;-76
2022/09/29 06:15:33;;;;;;;4.17;3.10;;;12.10;93.50;;;;;;4954053;29;20454;-75
2022/09/29 06:18:02;;;;;;;3.70;3.40;;;12.10;93.60;;;;;;4939215;29;20434;-75
2022/09/29 06:20:32;;;;;;;3.07;2.50;;;12.10;93.60;;;;;;4939344;29;20432;-76
2022/09/29 06:23:00;;;;;;;3.20;2.70;;;12.10;93.60;;;;;;4956033;28;20482;-76
2022/09/29 06:25:33;;;;;;;2.90;2.50;;;12.10;93.70;;;;;;4938569;29;20466;-76
2022/09/29 06:28:02;;;;;;;3.77;3.40;;;12.10;93.70;;;;;;4954731;29;20495;-76
2022/09/29 06:30:27;;;;;;;3.00;2.70;;;12.10;93.70;;;;;;4939042;29;20761;-76
2022/09/29 06:32:56;;;;;;;4.17;2.70;;;12.10;93.70;;;;;;4956086;28;20467;-75
2022/09/29 06:38:11;;;;;;;4.20;3.07;;;12.10;93.70;;;;;;4954992;28;20504;-75
2022/09/29 06:40:37;;;;;;;4.00;3.53;;;12.10;93.70;;;;;;4954425;28;20449;-76
2022/09/29 06:43:06;;;;;;;3.43;2.83;;;12.10;93.80;;;;;;4939008;29;20421;-76
2022/09/29 06:45:34;;;;;;;3.77;2.93;;;12.10;93.80;;;;;;4955681;28;20477;-75
2022/09/29 06:48:02;;;;;;;3.83;3.33;;;12.10;93.80;;;;;;4954316;29;20473;-76
2022/09/29 06:50:32;;;;;;;4.37;3.10;;;12.10;93.80;;;;;;4954424;29;20412;-75
2022/09/29 06:53:01;;;;;;;4.00;2.47;;;12.10;93.80;;;;;;4938679;29;20914;-75
2022/09/29 06:55:27;;;;;;;5.23;3.20;;;12.10;93.90;;;;;;4954818;29;20463;-77
2022/09/29 06:57:57;;;;;;;5.00;3.30;;;12.10;93.90;;;;;;4954553;29;20425;-77
2022/09/29 07:00:25;;;;;;;4.50;3.30;;;12.10;93.90;;;;;;4938771;29;20949;-76
2022/09/29 07:02:53;;;;;;;3.10;2.80;;;12.10;93.90;;;;;;4954608;29;20988;-76
2022/09/29 07:05:42;;;;;;;3.10;2.80;;;12.10;93.90;;;;;;4954280;29;20440;-76
2022/09/29 07:08:08;;;;;;;3.80;3.20;;;12.10;94.00;;;;;;4951221;28;20469;-76
2022/09/29 07:10:34;;;;;;;5.97;3.17;;;12.10;94.00;;;;;;4947614;29;20437;-76
2022/09/29 07:13:01;;;;;;;3.27;2.97;;;12.00;94.00;;;;;;4938293;29;20418;-76
2022/09/29 07:15:35;;;;;;;4.50;3.77;;;12.10;94.00;;;;;;4934547;29;20456;-76
2022/09/29 07:18:04;;;;;;;2.60;2.40;;;12.10;94.00;;;;;;4918017;29;20415;-77
2022/09/29 07:20:36;;;;;;;2.97;2.70;;;12.00;94.00;;;;;;4933944;29;20457;-76
2022/09/29 07:23:09;;;;;;;3.80;3.20;;;12.10;94.10;;;;;;4934420;29;20516;-76
2022/09/29 07:25:35;;;;;;;3.97;3.40;;;12.00;94.00;;;;;;4918510;29;20953;-76
2022/09/29 07:28:04;;;;;;;4.03;3.53;;;12.10;94.10;;;;;;4940903;29;20477;-75
2022/09/29 07:30:30;;;;;;;4.10;3.47;;;12.00;94.00;;;;;;4938064;29;20419;-76
2022/09/29 07:32:58;;;;;;;3.20;2.90;;;12.00;94.10;;;;;;4955445;28;20784;-76
2022/09/29 07:35:24;;;;;;;4.23;3.33;;;12.00;94.10;;;;;;4953793;29;20446;-76
2022/09/29 07:37:54;;;;;;;4.40;3.37;;;12.00;94.10;;;;;;4954111;28;20456;-76
2022/09/29 07:40:24;;;;;;;3.43;2.87;;;12.00;94.10;;;;;;4953838;29;20415;-76
2022/09/29 07:42:50;;;;;;;4.80;2.83;;;12.00;94.10;;;;;;4953144;29;20426;-76
2022/09/29 07:45:16;;;;;;;4.83;3.17;;;12.00;94.10;;;;;;4922013;29;20535;-76
2022/09/29 07:47:43;;;;;;;3.23;2.93;;;12.00;94.20;;;;;;4933503;29;20548;-76
2022/09/29 07:50:10;;;;;;;4.07;3.60;;;12.00;94.10;;;;;;4946968;29;20454;-76
2022/09/29 07:52:36;;;;;;;4.37;3.43;;;12.00;94.20;;;;;;4961268;28;20412;-76
2022/09/29 07:55:14;;;;;;;4.17;3.77;;;12.10;94.30;;;;;;4952785;29;20450;-76
2022/09/29 07:57:40;;;;;;;5.03;3.10;;;12.10;94.30;;;;;;4933885;28;20431;-76
2022/09/29 08:00:06;;;;;;;4.30;3.60;;;12.00;94.20;;;;;;4929972;29;20543;-76
2022/09/29 08:02:37;;;;;;;6.83;3.10;;;12.00;94.20;;;;;;4921813;29;20517;-76
2022/09/29 08:05:06;;;;;;;4.13;3.40;;;12.10;94.30;;;;;;4951126;28;20538;-76
2022/09/29 08:07:36;;;;;;;5.13;3.03;;;12.00;94.30;;;;;;4952656;29;20499;-76
2022/09/29 08:10:03;;;;;;;5.70;4.23;;;12.00;94.40;;;;;;4920760;29;20975;-76
2022/09/29 08:12:32;;;;;;;8.10;4.03;;;12.00;94.40;;;;;;4952291;29;20471;-76
2022/09/29 08:14:58;;;;;;;4.03;3.67;;;12.00;94.40;;;;;;4947399;28;20456;-76
2022/09/29 08:17:39;;;;;;;3.43;3.13;;;12.10;94.50;;;;;;4938807;29;20427;-76
2022/09/29 08:20:08;;;;;;;3.47;3.10;;;12.00;94.40;;;;;;4935717;28;20422;-76
2022/09/29 08:22:43;;;;;;;4.70;3.87;;;12.10;94.50;;;;;;4914863;29;20765;-76
2022/09/29 08:25:09;;;;;;;3.57;3.27;;;12.10;94.50;;;;;;4951402;28;20556;-76
2022/09/29 08:27:35;;;;;;;4.13;2.93;;;12.10;94.50;;;;;;4936690;29;20619;-76
2022/09/29 08:30:01;;;;;;;4.03;3.63;;;12.10;94.60;;;;;;4935812;29;20451;-76
2022/09/29 08:32:27;;;;;;;4.50;3.30;;;12.10;94.50;;;;;;4936763;29;20483;-76
2022/09/29 08:34:56;;;;;;;6.60;3.33;;;12.10;94.50;;;;;;4936845;29;20494;-76
2022/09/29 08:37:22;;;;;;;5.40;3.20;;;12.10;94.50;;;;;;4949264;28;20945;-76
2022/09/29 08:39:50;;;;;;;3.60;3.30;;;12.10;94.60;;;;;;4934450;29;20443;-76
2022/09/29 08:42:54;;;;;;;3.53;3.20;;;12.10;94.50;;;;;;4937573;29;20474;-77
2022/09/29 08:45:39;;;;;;;4.03;3.60;;;12.10;94.50;;;;;;4928431;29;20964;-76
2022/09/29 08:48:21;;;;;;;6.10;3.40;;;12.10;94.60;;;;;;4946936;28;20485;-76
2022/09/29 08:51:05;;;;;;;4.33;3.20;;;12.10;94.60;;;;;;4938408;29;20433;-76
2022/09/29 08:53:36;;;;;;;5.50;3.87;;;12.10;94.60;;;;;;4954734;28;20965;-76
2022/09/29 08:56:25;;;;;;;3.93;3.60;;;12.20;94.70;;;;;;4936693;29;20549;-76
2022/09/29 08:58:53;;;;;;;5.43;4.63;;;12.20;94.80;;;;;;4947095;29;20515;-76
2022/09/29 09:01:42;;;;;;;5.00;4.13;;;12.20;94.80;;;;;;4966498;28;20423;-76
2022/09/29 09:04:30;;;;;;;3.70;3.40;;;12.20;94.90;;;;;;4952598;29;20395;-76
2022/09/29 09:07:29;;;;;;;4.10;3.70;;;12.20;94.90;;;;;;4934991;28;21076;-76
2022/09/29 09:10:02;;;;;;;4.43;3.50;;;12.30;94.90;;;;;;4937851;29;20438;-76
2022/09/29 09:12:55;;;;;;;4.10;3.70;;;12.20;94.90;;;;;;4950048;29;20868;-76
2022/09/29 09:15:59;;;;;;;4.40;3.50;;;12.30;95.10;;;;;;4955952;28;20442;-76
2022/09/29 09:19:02;;;;;;;4.60;3.87;;;12.30;95.10;;;;;;4948075;29;20424;-76
2022/09/29 09:21:37;;;;;;;4.10;3.70;;;12.30;95.10;;;;;;4922902;29;20978;-76
2022/09/29 09:24:22;;;;;;;9.63;5.30;;;12.30;95.20;;;;;;4956928;28;20969;-76
2022/09/29 09:26:50;;;;;;;6.90;4.27;;;12.30;95.20;;;;;;4925387;29;20495;-77
2022/09/29 09:29:37;;;;;;;4.60;3.97;;;12.30;95.50;;;;;;4967128;28;20962;-76
2022/09/29 09:32:10;;;;;;;6.03;4.50;;;12.40;95.60;;;;;;4943216;28;20517;-76
2022/09/29 09:35:49;;;;;;;6.50;4.03;;;12.40;95.60;;;;;;4937240;29;20472;-76
2022/09/29 09:38:21;;;;;;;5.43;4.00;;;12.40;95.60;;;;;;4869581;29;20450;-76
2022/09/29 09:40:56;;;;;;;4.33;4.03;;;12.40;95.60;;;;;;4930904;29;20513;-76
2022/09/29 09:43:32;;;;;;;4.37;3.97;;;12.50;95.80;;;;;;4953789;28;20416;-76
2022/09/29 09:46:01;;;;;;;4.07;3.33;;;12.50;96.20;;;;;;4935393;29;20463;-76
2022/09/29 09:48:40;;;;;;;5.77;4.53;;;12.50;95.80;;;;;;4948138;29;20431;-76
2022/09/29 09:51:19;;;;;;;4.60;4.20;;;12.50;95.70;;;;;;4936139;29;20431;-76
2022/09/29 09:53:52;;;;;;;4.97;3.80;;;12.60;95.80;;;;;;4920184;29;20799;-76
2022/09/29 09:56:42;;;;;;;4.90;4.27;;;12.60;95.70;;;;;;4942644;29;20448;-76
2022/09/29 09:59:31;;;;;;;7.33;4.10;;;12.70;95.80;;;;;;4955351;28;20455;-76
2022/09/29 10:01:58;;;;;;;5.27;4.50;;;12.70;95.80;;;;;;4922480;29;20535;-76
2022/09/29 10:04:24;;;;;;;5.40;3.80;;;12.70;95.80;;;;;;4938057;28;20438;-76
2022/09/29 10:06:51;;;;;;;7.27;4.20;;;12.80;95.80;;;;;;4935492;29;20543;-76
2022/09/29 10:09:24;;;;;;;5.33;3.20;;;12.80;95.70;;;;;;4954308;28;20482;-76
2022/09/29 10:11:50;;;;;;;6.10;4.30;;;12.80;95.60;;;;;;4954436;29;20417;-76
2022/09/29 10:14:24;;;;;;;5.83;4.40;;;12.80;95.60;;;;;;4954616;29;20405;-76
2022/09/29 10:16:56;;;;;;;4.50;3.80;;;12.90;95.60;;;;;;4935501;29;20457;-76
2022/09/29 10:19:43;;;;;;;4.50;3.70;;;12.90;95.60;;;;;;4951149;29;20402;-76
2022/09/29 10:22:17;;;;;;;4.73;4.33;;;12.90;95.60;;;;;;4936116;29;20486;-76
2022/09/29 10:24:50;;;;;;;9.37;3.93;;;13.00;95.50;;;;;;4935705;29;20510;-76
2022/09/29 10:27:24;;;;;;;5.43;4.60;;;13.00;95.50;;;;;;4940388;29;20476;-77
2022/09/29 10:29:57;;;;;;;6.00;4.23;;;13.00;95.60;;;;;;4953541;28;20451;-76
2022/09/29 10:32:35;;;;;;;4.27;3.90;;;13.10;95.70;;;;;;4954232;29;20432;-76
2022/09/29 10:38:00;;;;;;;4.50;4.10;;;13.10;95.60;;;;;;4891679;29;20486;-76
2022/09/29 10:40:26;;;;;;;4.03;3.50;;;13.20;95.60;;;;;;4910568;29;20468;-76
2022/09/29 10:42:56;;;;;;;4.93;4.00;;;13.20;95.50;;;;;;4913207;29;20422;-77
2022/09/29 10:45:23;;;;;;;6.00;3.90;;;13.20;95.50;;;;;;4897169;29;20821;-76
2022/09/29 10:47:59;;;;;;;4.50;3.90;;;13.20;95.40;;;;;;4906323;29;20503;-76
2022/09/29 10:50:38;;;;;;;3.50;3.20;;;13.30;95.40;;;;;;4887050;29;20440;-76
2022/09/29 10:53:18;;;;;;;3.83;3.50;;;13.30;95.30;;;;;;4902683;29;20534;-75
2022/09/29 10:55:50;;;;;;;3.83;3.43;;;13.30;95.30;;;;;;4931227;29;20472;-77
2022/09/29 10:58:22;;;;;;;5.03;3.70;;;13.30;95.30;;;;;;4900287;29;20982;-77
2022/09/29 11:01:15;;;;;;;4.03;3.10;;;13.40;95.30;;;;;;4930120;29;20519;-76
2022/09/29 11:03:53;;;;;;;5.53;3.70;;;13.40;95.20;;;;;;4913390;29;20861;-76
2022/09/29 11:06:26;;;;;;;3.73;3.40;;;13.40;95.10;;;;;;4913157;29;20476;-76
2022/09/29 11:09:03;;;;;;;4.10;3.70;;;13.40;95.10;;;;;;4899656;29;20448;-74
2022/09/29 11:11:47;;;;;;;4.70;3.20;;;13.50;95.20;;;;;;4915622;29;20409;-75
2022/09/29 11:14:31;;;;;;;7.07;3.90;;;13.50;95.10;;;;;;4897936;29;21903;-75
2022/09/29 11:17:02;;;;;;;3.50;3.00;;;13.50;95.00;;;;;;4899781;29;20829;-74
2022/09/29 11:19:31;;;;;;;3.20;2.90;;;13.60;95.10;;;;;;4907888;29;20488;-75
2022/09/29 11:22:32;;;;;;;3.00;2.70;;;13.60;95.10;;;;;;4881844;29;20478;-75
2022/09/29 11:25:31;;;;;;;5.13;2.83;;;13.60;95.00;;;;;;4908955;29;20441;-75
2022/09/29 11:28:25;;;;;;;3.00;2.70;;;13.70;95.00;;;;;;4897585;29;20516;-75
2022/09/29 11:31:17;;;;;;;3.10;2.40;;;13.70;94.90;;;;;;4897316;29;20442;-76
2022/09/29 11:34:01;;;;;;;3.60;2.70;;;13.70;94.80;;;;;;4896968;29;20419;-75
2022/09/29 11:36:41;;;;;;;3.33;2.63;;;13.70;94.70;;;;;;4896203;29;20451;-75
2022/09/29 11:39:31;;;;;;;4.90;2.40;;;13.70;94.70;;;;;;4886895;29;20496;-76
2022/09/29 11:42:26;;;;;;;3.40;2.57;;;13.70;94.70;;;;;;4919588;29;20444;-76
2022/09/29 11:44:59;;;;;;;4.17;2.30;;;13.80;94.70;;;;;;4898484;29;20469;-75
2022/09/29 11:47:43;;;;;;;3.63;2.90;;;13.80;94.80;;;;;;4915266;29;20487;-75
2022/09/29 11:50:43;;;;;;;3.80;2.60;;;13.90;94.60;;;;;;4915450;29;20488;-75
2022/09/29 11:54:22;;;;;;;2.33;2.13;;;13.80;94.50;;;;;;4898724;29;20791;-75
2022/09/29 11:57:16;;;;;;;3.20;2.33;;;13.90;94.40;;;;;;4858807;29;21051;-76
2022/09/29 11:59:51;;;;;;;3.53;2.17;;;13.90;94.40;;;;;;4860974;29;20427;-75
2022/09/29 12:02:41;;;;;;;3.47;2.93;;;13.90;94.40;;;;;;4861358;29;20991;-75
2022/09/29 12:05:14;;;;;;;3.10;2.70;;;13.90;94.30;;;;;;4830849;29;20960;-75
2022/09/29 12:08:02;;;;;;;2.60;2.33;;;14.00;94.30;;;;;;4860983;29;20466;-75
2022/09/29 12:10:54;;;;;;;2.77;2.40;;;14.10;94.30;;;;;;4845758;29;20530;-75
2022/09/29 12:13:52;;;;;;;3.67;2.40;;;14.00;94.10;;;;;;4860463;29;20472;-76
2022/09/29 12:16:22;;;;;;;3.27;1.93;;;14.10;94.10;;;;;;4861448;29;21274;-75
2022/09/29 12:18:58;;;;;;;2.50;2.13;;;14.10;94.10;;;;;;4861157;29;20525;-75
2022/09/29 12:21:33;;;;;;;5.23;2.27;;;14.10;94.00;;;;;;4876453;29;20433;-75
2022/09/29 12:24:05;;;;;;;4.63;2.60;;;14.10;93.90;;;;;;4879001;29;20434;-75
2022/09/29 12:26:33;;;;;;;3.50;2.00;;;14.20;93.90;;;;;;4882196;29;20501;-72
2022/09/29 12:29:16;;;;;;;4.30;2.20;;;14.20;93.80;;;;;;4900358;29;20418;-72
2022/09/29 12:31:48;;;;;;;3.00;2.40;;;14.20;93.80;;;;;;4900294;29;20441;-72
2022/09/29 12:34:30;;;;;;;4.07;2.10;;;14.20;93.70;;;;;;4900502;29;20433;-72
2022/09/29 12:37:14;;;;;;;2.50;2.10;;;14.30;93.70;;;;;;4884604;29;20461;-72
2022/09/29 12:40:03;;;;;;;3.03;1.70;;;14.30;93.70;;;;;;4901842;29;20401;-72
2022/09/29 12:42:47;;;;;;;2.90;2.07;;;14.30;93.80;;;;;;4900307;29;20462;-72
2022/09/29 12:45:25;;;;;;;2.77;2.57;;;14.30;93.60;;;;;;4884594;29;20457;-72
2022/09/29 12:47:54;;;;;;;2.30;2.10;;;14.40;93.90;;;;;;4901153;29;20461;-72
2022/09/29 12:50:45;;;;;;;2.90;2.27;;;14.40;93.40;;;;;;4901174;29;20411;-72
2022/09/29 12:53:23;;;;;;;6.20;2.10;;;14.40;93.40;;;;;;4884754;29;21055;-72
2022/09/29 12:55:57;;;;;;;3.90;2.57;;;14.40;93.30;;;;;;4899822;29;21004;-72
2022/09/29 12:58:52;;;;;;;2.67;2.23;;;14.40;93.30;;;;;;4915278;29;20434;-72
2022/09/29 13:01:21;;;;;;;1.80;1.70;;;14.50;93.20;;;;;;4884329;29;20517;-72
2022/09/29 13:04:27;;;;;;;2.10;1.73;;;14.50;93.10;;;;;;4899920;29;20436;-72
2022/09/29 13:07:29;;;;;;;2.67;1.83;;;14.50;93.00;;;;;;4900624;29;20560;-72
2022/09/29 13:10:19;;;;;;;2.07;1.87;;;14.50;93.00;;;;;;4899787;29;20408;-72
2022/09/29 13:13:23;;;;;;;2.53;2.13;;;14.50;92.90;;;;;;4884008;29;20449;-72
2022/09/29 13:16:09;;;;;;;2.67;2.20;;;14.60;92.90;;;;;;4899407;29;20859;-72
2022/09/29 13:18:51;;;;;;;1.93;1.83;;;14.60;92.90;;;;;;4899550;29;20509;-72
2022/09/29 13:21:20;;;;;;;1.93;1.73;;;14.60;92.90;;;;;;4899467;29;20416;-72
2022/09/29 13:23:57;;;;;;;2.60;1.97;;;14.60;92.90;;;;;;4884211;29;20425;-72
2022/09/29 13:27:08;;;;;;;2.83;2.00;;;14.70;92.90;;;;;;4899335;29;20532;-72
2022/09/29 13:29:59;;;;;;;2.70;2.03;;;14.70;92.90;;;;;;4883479;29;20442;-72
2022/09/29 13:32:31;;;;;;;1.70;1.60;;;14.70;92.80;;;;;;4899247;29;20834;-72
2022/09/29 13:35:00;;;;;;;2.67;1.77;;;14.70;92.80;;;;;;4900378;29;20402;-72